createdAt,value
2022-08-16T00:00:22.277Z,20.95
2022-08-16T00:02:50.741Z,20.96
2022-08-16T00:05:19.770Z,20.94
2022-08-16T00:07:47.181Z,20.93
2022-08-16T00:10:20.973Z,20.97
2022-08-16T00:12:48.778Z,20.89
2022-08-16T00:15:22.546Z,20.87
2022-08-16T00:17:56.026Z,20.91
2022-08-16T00:20:24.276Z,20.97
2022-08-16T00:22:51.986Z,20.94
2022-08-16T00:25:21.314Z,20.88
2022-08-16T00:28:08.467Z,20.83
2022-08-16T00:30:38.247Z,20.82
2022-08-16T00:33:06.887Z,20.68
2022-08-16T00:35:37.230Z,20.61
2022-08-16T00:38:41.368Z,20.50
2022-08-16T00:40:54.286Z,20.38
2022-08-16T00:43:42.441Z,20.36
2022-08-16T00:46:33.849Z,20.28
2022-08-16T00:49:04.368Z,20.16
2022-08-16T00:51:31.492Z,20.04
2022-08-16T00:53:58.391Z,20.06
2022-08-16T00:56:56.171Z,20.13
2022-08-16T00:59:20.378Z,20.02
2022-08-16T01:01:52.136Z,19.96
2022-08-16T01:04:29.092Z,19.95
2022-08-16T01:07:02.036Z,20.05
2022-08-16T01:09:37.326Z,20.21
2022-08-16T01:12:08.816Z,20.26
2022-08-16T01:14:43.714Z,20.35
2022-08-16T01:17:14.447Z,20.35
2022-08-16T01:19:50.496Z,20.38
2022-08-16T01:22:52.654Z,20.49
2022-08-16T01:25:33.864Z,20.38
2022-08-16T01:28:04.051Z,20.41
2022-08-16T01:30:34.617Z,20.38
2022-08-16T01:33:15.052Z,20.33
2022-08-16T01:35:52.891Z,20.32
2022-08-16T01:38:29.117Z,20.33
2022-08-16T01:41:07.935Z,20.47
2022-08-16T01:43:39.372Z,20.49
2022-08-16T01:46:31.222Z,20.45
2022-08-16T01:49:17.048Z,20.49
2022-08-16T01:51:50.681Z,20.58
2022-08-16T01:54:31.223Z,20.57
2022-08-16T01:57:02.515Z,20.54
2022-08-16T01:59:32.241Z,20.52
2022-08-16T02:02:00.611Z,20.51
2022-08-16T02:04:49.115Z,20.52
2022-08-16T02:07:23.541Z,20.46
2022-08-16T02:09:56.872Z,20.50
2022-08-16T02:12:50.712Z,20.49
2022-08-16T02:15:24.880Z,20.52
2022-08-16T02:17:56.222Z,20.51
2022-08-16T02:20:26.059Z,20.56
2022-08-16T02:22:55.816Z,20.48
2022-08-16T02:25:23.448Z,20.46
2022-08-16T02:27:50.718Z,20.49
2022-08-16T02:30:37.031Z,20.52
2022-08-16T02:33:11.600Z,20.39
2022-08-16T02:35:53.906Z,20.56
2022-08-16T02:38:27.788Z,20.62
2022-08-16T02:40:57.449Z,20.69
2022-08-16T02:43:29.320Z,20.79
2022-08-16T02:46:07.573Z,20.96
2022-08-16T02:48:38.582Z,20.95
2022-08-16T02:51:11.075Z,21.05
2022-08-16T02:53:43.448Z,21.07
2022-08-16T02:56:14.897Z,20.92
2022-08-16T02:58:47.208Z,20.80
2022-08-16T03:01:25.125Z,20.77
2022-08-16T03:04:40.607Z,20.66
2022-08-16T03:06:56.802Z,20.49
2022-08-16T03:09:44.644Z,20.48
2022-08-16T03:12:16.350Z,20.61
2022-08-16T03:14:44.299Z,20.49
2022-08-16T03:17:12.945Z,20.36
2022-08-16T03:19:48.174Z,20.29
2022-08-16T03:22:28.089Z,20.32
2022-08-16T03:25:01.604Z,20.39
2022-08-16T03:27:32.563Z,20.40
2022-08-16T03:30:15.203Z,20.31
2022-08-16T03:32:51.615Z,20.35
2022-08-16T03:35:23.421Z,20.41
2022-08-16T03:38:02.894Z,20.50
2022-08-16T03:40:38.963Z,20.49
2022-08-16T03:43:19.918Z,20.59
2022-08-16T03:45:52.739Z,20.71
2022-08-16T03:48:36.176Z,20.68
2022-08-16T03:51:12.495Z,20.79
2022-08-16T03:53:46.303Z,20.71
2022-08-16T03:56:30.356Z,20.61
2022-08-16T03:58:57.621Z,20.70
2022-08-16T04:01:29.806Z,20.60
2022-08-16T04:03:58.048Z,20.62
2022-08-16T04:06:27.433Z,20.61
2022-08-16T04:08:54.912Z,20.50
2022-08-16T04:11:22.930Z,20.60
2022-08-16T04:14:01.031Z,20.58
2022-08-16T04:16:40.850Z,20.62
2022-08-16T04:19:35.370Z,20.71
2022-08-16T04:22:02.971Z,20.82
2022-08-16T04:24:43.808Z,20.90
2022-08-16T04:27:22.194Z,20.94
2022-08-16T04:29:52.077Z,20.98
2022-08-16T04:32:19.975Z,21.02
2022-08-16T04:34:50.749Z,21.05
2022-08-16T04:37:18.547Z,21.08
2022-08-16T04:39:55.573Z,21.09
2022-08-16T04:42:26.119Z,21.09
2022-08-16T04:44:56.103Z,21.12
2022-08-16T04:47:31.325Z,21.08
2022-08-16T04:49:58.867Z,21.08
2022-08-16T04:52:33.268Z,21.12
2022-08-16T04:55:12.057Z,21.12
2022-08-16T04:57:41.627Z,21.10
2022-08-16T05:00:31.176Z,21.14
2022-08-16T05:03:27.000Z,21.10
2022-08-16T05:05:59.131Z,21.12
2022-08-16T05:08:31.158Z,21.12
2022-08-16T05:11:08.552Z,21.23
2022-08-16T05:13:42.053Z,21.30
2022-08-16T05:16:19.764Z,21.43
2022-08-16T05:18:51.246Z,21.41
2022-08-16T05:21:20.942Z,21.48
2022-08-16T05:23:58.564Z,21.45
2022-08-16T05:26:30.163Z,21.62
2022-08-16T05:28:58.089Z,21.70
2022-08-16T05:31:29.968Z,21.90
2022-08-16T05:34:03.618Z,21.98
2022-08-16T05:36:36.832Z,22.07
2022-08-16T05:39:08.862Z,22.10
2022-08-16T05:41:45.580Z,22.12
2022-08-16T05:44:24.076Z,22.10
2022-08-16T05:47:00.262Z,22.13
2022-08-16T05:49:38.781Z,22.26
2022-08-16T05:52:13.787Z,22.22
2022-08-16T05:54:47.925Z,22.26
2022-08-16T05:57:25.859Z,22.35
2022-08-16T06:00:07.001Z,22.42
2022-08-16T06:02:45.100Z,22.54
2022-08-16T06:05:30.939Z,22.65
2022-08-16T06:08:04.490Z,22.73
2022-08-16T06:10:35.620Z,22.84
2022-08-16T06:13:04.703Z,22.89
2022-08-16T06:15:32.744Z,22.99
2022-08-16T06:18:03.011Z,22.98
2022-08-16T06:20:36.046Z,23.01
2022-08-16T06:23:32.357Z,23.05
2022-08-16T06:26:03.705Z,23.05
2022-08-16T06:28:37.297Z,23.22
2022-08-16T06:31:12.894Z,23.20
2022-08-16T06:33:44.629Z,23.24
2022-08-16T06:36:14.849Z,23.29
2022-08-16T06:38:55.388Z,23.32
2022-08-16T06:41:48.455Z,23.50
2022-08-16T06:44:34.356Z,23.66
2022-08-16T06:47:04.992Z,23.81
2022-08-16T06:49:31.921Z,23.83
2022-08-16T06:52:02.752Z,23.79
2022-08-16T06:54:36.582Z,23.76
2022-08-16T06:57:06.392Z,23.73
2022-08-16T06:59:52.717Z,23.62
2022-08-16T07:02:33.111Z,23.51
2022-08-16T07:05:02.735Z,23.52
2022-08-16T07:07:33.835Z,23.56
2022-08-16T07:10:08.557Z,23.53
2022-08-16T07:13:00.865Z,23.54
2022-08-16T07:15:25.193Z,23.60
2022-08-16T07:17:52.270Z,23.70
2022-08-16T07:20:30.363Z,23.70
2022-08-16T07:23:13.159Z,23.81
2022-08-16T07:25:52.174Z,23.83
2022-08-16T07:28:24.342Z,23.95
2022-08-16T07:30:54.131Z,24.15
2022-08-16T07:33:51.326Z,25.06
2022-08-16T07:36:22.704Z,24.85
2022-08-16T07:38:52.310Z,24.65
2022-08-16T07:41:19.910Z,24.53
2022-08-16T07:43:51.934Z,24.53
2022-08-16T07:46:38.725Z,24.45
2022-08-16T07:49:33.344Z,24.25
2022-08-16T07:52:18.982Z,24.17
2022-08-16T07:54:49.036Z,23.97
2022-08-16T07:57:20.081Z,24.00
2022-08-16T07:59:52.512Z,23.93
2022-08-16T08:02:21.080Z,23.95
2022-08-16T08:04:54.839Z,24.07
2022-08-16T08:07:21.771Z,24.19
2022-08-16T08:09:51.666Z,24.75
2022-08-16T08:12:32.480Z,25.09
2022-08-16T08:15:05.997Z,25.45
2022-08-16T08:18:49.921Z,25.98
2022-08-16T08:20:33.802Z,26.04
2022-08-16T08:23:01.810Z,26.04
2022-08-16T08:25:54.822Z,25.94
2022-08-16T08:28:26.682Z,25.96
2022-08-16T08:31:02.706Z,25.89
2022-08-16T08:33:34.274Z,26.13
2022-08-16T08:36:05.588Z,26.09
2022-08-16T08:38:45.137Z,26.06
2022-08-16T08:41:15.545Z,26.12
2022-08-16T08:43:50.475Z,26.38
2022-08-16T08:46:21.365Z,27.65
2022-08-16T08:48:59.743Z,28.01
2022-08-16T08:51:36.851Z,27.53
2022-08-16T08:54:09.579Z,27.20
2022-08-16T08:56:45.300Z,27.15
2022-08-16T08:59:46.111Z,27.82
2022-08-16T09:02:16.619Z,28.35
2022-08-16T09:04:51.153Z,28.51
2022-08-16T09:07:23.683Z,29.52
2022-08-16T09:10:06.279Z,30.66
2022-08-16T09:12:47.258Z,30.50
2022-08-16T09:15:21.524Z,30.75
2022-08-16T09:17:52.263Z,30.74
2022-08-16T09:20:25.774Z,32.56
2022-08-16T09:22:54.445Z,33.99
2022-08-16T09:25:34.229Z,35.29
2022-08-16T09:28:09.401Z,36.38
2022-08-16T09:30:44.344Z,36.46
2022-08-16T09:33:15.203Z,36.65
2022-08-16T09:35:44.548Z,36.31
2022-08-16T09:38:31.426Z,36.99
2022-08-16T09:40:59.982Z,35.08
2022-08-16T09:43:58.648Z,34.36
2022-08-16T09:46:48.561Z,33.67
2022-08-16T09:49:03.371Z,34.77
2022-08-16T09:51:36.735Z,35.53
2022-08-16T09:54:05.073Z,34.49
2022-08-16T09:56:34.763Z,33.91
2022-08-16T09:59:07.891Z,34.45
2022-08-16T10:01:43.629Z,34.63
2022-08-16T10:04:31.209Z,33.46
2022-08-16T10:09:45.083Z,33.38
2022-08-16T10:12:34.413Z,35.77
2022-08-16T10:15:01.083Z,36.93
2022-08-16T10:17:28.999Z,37.88
2022-08-16T10:19:56.149Z,36.94
2022-08-16T10:22:23.347Z,37.58
2022-08-16T10:24:56.062Z,38.34
2022-08-16T10:27:28.960Z,37.78
2022-08-16T10:30:25.729Z,37.37
2022-08-16T10:32:55.599Z,38.11
2022-08-16T10:35:23.017Z,38.28
2022-08-16T10:37:52.433Z,38.47
2022-08-16T10:40:29.330Z,38.51
2022-08-16T10:43:00.282Z,38.19
2022-08-16T10:45:36.690Z,38.54
2022-08-16T10:48:27.303Z,38.79
2022-08-16T10:50:55.224Z,38.63
2022-08-16T10:53:22.077Z,39.26
2022-08-16T10:55:57.703Z,39.29
2022-08-16T10:58:34.660Z,38.46
2022-08-16T11:03:54.151Z,39.10
2022-08-16T11:06:26.922Z,38.95
2022-08-16T11:14:28.659Z,38.17
2022-08-16T11:17:11.040Z,39.48
2022-08-16T11:22:47.470Z,39.48
2022-08-16T11:25:56.362Z,39.93
2022-08-16T11:28:00.487Z,39.88
2022-08-16T11:30:39.155Z,40.78
2022-08-16T11:33:08.940Z,41.22
2022-08-16T11:36:22.592Z,41.07
2022-08-16T11:38:52.080Z,41.22
2022-08-16T11:41:12.823Z,40.58
2022-08-16T11:43:41.779Z,40.43
2022-08-16T11:46:43.784Z,40.55
2022-08-16T11:48:58.941Z,40.73
2022-08-16T11:51:25.589Z,40.69
2022-08-16T11:53:53.136Z,41.03
2022-08-16T11:56:29.974Z,41.40
2022-08-16T11:59:06.921Z,40.77
2022-08-16T12:01:55.031Z,39.84
2022-08-16T12:04:21.696Z,43.22
2022-08-16T12:06:50.119Z,47.15
2022-08-16T12:09:20.828Z,47.36
2022-08-16T12:11:52.798Z,49.28
2022-08-16T12:14:22.814Z,49.33
2022-08-16T12:16:55.090Z,49.54
2022-08-16T12:19:35.166Z,50.27
2022-08-16T12:22:05.458Z,50.88
2022-08-16T12:24:45.179Z,50.44
2022-08-16T12:27:14.688Z,50.85
2022-08-16T12:29:42.429Z,49.99
2022-08-16T12:32:27.055Z,47.61
2022-08-16T12:34:57.275Z,50.66
2022-08-16T12:37:24.807Z,50.70
2022-08-16T12:39:56.982Z,50.03
2022-08-16T12:42:34.674Z,49.81
2022-08-16T12:45:11.095Z,49.10
2022-08-16T12:48:15.891Z,51.01
2022-08-16T12:50:43.595Z,48.89
2022-08-16T12:53:16.303Z,49.49
2022-08-16T12:55:44.475Z,50.27
2022-08-16T12:58:13.884Z,49.67
2022-08-16T13:01:00.023Z,50.14
2022-08-16T13:03:28.925Z,50.05
2022-08-16T13:05:59.608Z,49.92
2022-08-16T13:08:30.979Z,50.73
2022-08-16T13:11:00.693Z,50.55
2022-08-16T13:13:29.495Z,49.47
2022-08-16T13:16:03.659Z,49.71
2022-08-16T13:18:35.608Z,44.83
2022-08-16T13:21:07.556Z,41.01
2022-08-16T13:23:35.840Z,38.62
2022-08-16T13:26:03.821Z,42.30
2022-08-16T13:28:31.130Z,45.38
2022-08-16T13:30:59.152Z,46.97
2022-08-16T13:33:36.903Z,47.61
2022-08-16T13:36:17.148Z,47.12
2022-08-16T13:38:53.011Z,48.16
2022-08-16T13:41:21.353Z,48.16
2022-08-16T13:43:57.372Z,47.34
2022-08-16T13:46:26.282Z,47.04
2022-08-16T13:48:53.392Z,47.17
2022-08-16T13:51:23.832Z,47.83
2022-08-16T13:54:02.580Z,47.66
2022-08-16T13:56:37.312Z,47.29
2022-08-16T13:59:14.251Z,45.15
2022-08-16T14:01:47.086Z,43.71
2022-08-16T14:04:35.432Z,41.96
2022-08-16T14:07:05.367Z,39.55
2022-08-16T14:09:36.271Z,38.30
2022-08-16T14:12:09.687Z,37.74
2022-08-16T14:14:36.893Z,37.61
2022-08-16T14:17:04.944Z,36.66
2022-08-16T14:19:36.547Z,36.70
2022-08-16T14:22:14.118Z,36.45
2022-08-16T14:24:52.844Z,36.07
2022-08-16T14:27:22.716Z,35.80
2022-08-16T14:29:51.037Z,35.30
2022-08-16T14:32:32.824Z,35.02
2022-08-16T14:35:11.699Z,35.08
2022-08-16T14:37:39.085Z,34.99
2022-08-16T14:40:13.157Z,34.66
2022-08-16T14:42:43.967Z,34.32
2022-08-16T14:45:18.404Z,33.53
2022-08-16T14:47:46.110Z,32.86
2022-08-16T14:50:20.214Z,32.57
2022-08-16T14:52:56.657Z,32.36
2022-08-16T14:55:27.481Z,32.19
2022-08-16T14:57:54.825Z,31.63
2022-08-16T15:00:27.162Z,31.55
2022-08-16T15:03:02.578Z,31.27
2022-08-16T15:08:01.029Z,30.68
2022-08-16T15:10:29.416Z,30.49
2022-08-16T15:13:00.955Z,30.19
2022-08-16T15:15:29.795Z,29.83
2022-08-16T15:17:57.623Z,29.65
2022-08-16T15:20:29.235Z,29.53
2022-08-16T15:22:59.123Z,29.18
2022-08-16T15:25:33.357Z,29.49
2022-08-16T15:28:05.547Z,29.94
2022-08-16T15:30:56.868Z,30.07
2022-08-16T15:33:25.519Z,30.45
2022-08-16T15:35:55.418Z,30.49
2022-08-16T15:38:57.736Z,30.62
2022-08-16T15:41:53.827Z,30.59
2022-08-16T15:44:23.769Z,30.57
2022-08-16T15:46:56.201Z,30.45
2022-08-16T15:49:25.252Z,30.50
2022-08-16T15:52:01.498Z,30.45
2022-08-16T15:54:32.718Z,30.26
2022-08-16T15:57:11.463Z,30.06
2022-08-16T15:59:49.125Z,30.12
2022-08-16T16:02:29.488Z,30.11
2022-08-16T16:05:04.729Z,30.18
2022-08-16T16:07:33.748Z,30.20
2022-08-16T16:10:07.885Z,30.08
2022-08-16T16:12:54.209Z,30.18
2022-08-16T16:15:26.199Z,29.97
2022-08-16T16:17:56.757Z,30.07
2022-08-16T16:20:27.331Z,30.03
2022-08-16T16:22:57.663Z,29.90
2022-08-16T16:25:24.937Z,29.84
2022-08-16T16:27:55.951Z,29.66
2022-08-16T16:30:37.641Z,29.55
2022-08-16T16:33:21.231Z,29.47
2022-08-16T16:35:55.217Z,29.37
2022-08-16T16:38:28.816Z,29.26
2022-08-16T16:40:57.778Z,29.17
2022-08-16T16:43:25.852Z,28.97
2022-08-16T16:45:58.257Z,28.92
2022-08-16T16:48:29.800Z,28.87
2022-08-16T16:51:09.149Z,28.66
2022-08-16T16:53:41.110Z,28.69
2022-08-16T16:56:10.464Z,28.61
2022-08-16T16:58:56.272Z,28.49
2022-08-16T17:01:49.320Z,28.37
2022-08-16T17:04:23.876Z,28.29
2022-08-16T17:06:58.241Z,28.17
2022-08-16T17:09:24.918Z,28.09
2022-08-16T17:11:55.313Z,28.00
2022-08-16T17:14:32.793Z,27.88
2022-08-16T17:17:05.065Z,27.73
2022-08-16T17:19:32.186Z,27.56
2022-08-16T17:21:59.840Z,27.48
2022-08-16T17:24:33.097Z,27.25
2022-08-16T17:27:08.231Z,27.06
2022-08-16T17:29:46.057Z,26.83
2022-08-16T17:32:44.464Z,26.76
2022-08-16T17:35:10.752Z,26.48
2022-08-16T17:37:48.877Z,26.47
2022-08-16T17:40:47.172Z,26.41
2022-08-16T17:43:19.179Z,26.23
2022-08-16T17:45:46.639Z,26.05
2022-08-16T17:48:13.887Z,25.90
2022-08-16T17:50:41.729Z,25.78
2022-08-16T17:53:10.039Z,25.84
2022-08-16T17:55:43.736Z,25.56
2022-08-16T17:58:23.031Z,25.38
2022-08-16T18:00:57.552Z,25.16
2022-08-16T18:04:02.247Z,25.01
2022-08-16T18:06:18.584Z,24.92
2022-08-16T18:08:49.156Z,24.79
2022-08-16T18:11:26.084Z,24.67
2022-08-16T18:13:54.373Z,24.53
2022-08-16T18:16:21.059Z,24.39
2022-08-16T18:18:47.697Z,24.31
2022-08-16T18:21:53.436Z,24.22
2022-08-16T18:24:20.563Z,24.14
2022-08-16T18:26:47.321Z,24.04
2022-08-16T18:29:14.081Z,23.93
2022-08-16T18:31:40.810Z,23.90
2022-08-16T18:34:07.531Z,23.89
2022-08-16T18:36:34.906Z,23.79
2022-08-16T18:39:02.020Z,23.68
2022-08-16T18:41:30.397Z,23.62
2022-08-16T18:44:26.910Z,23.50
2022-08-16T18:46:46.284Z,23.43
2022-08-16T18:49:18.423Z,23.37
2022-08-16T18:51:45.692Z,23.31
2022-08-16T18:54:18.553Z,23.27
2022-08-16T18:56:55.229Z,23.19
2022-08-16T18:59:26.479Z,23.12
2022-08-16T19:01:53.338Z,23.01
2022-08-16T19:04:47.497Z,22.92
2022-08-16T19:07:14.714Z,22.90
2022-08-16T19:09:41.422Z,22.79
2022-08-16T19:12:08.372Z,22.74
2022-08-16T19:14:35.107Z,22.70
2022-08-16T19:17:01.752Z,22.65
2022-08-16T19:19:28.460Z,22.63
2022-08-16T19:21:55.151Z,22.56
2022-08-16T19:24:21.855Z,22.51
2022-08-16T19:26:49.841Z,22.48
2022-08-16T19:29:16.522Z,22.45
2022-08-16T19:31:44.221Z,22.39
2022-08-16T19:34:13.197Z,22.32
2022-08-16T19:36:40.747Z,22.33
2022-08-16T19:39:14.752Z,22.28
2022-08-16T19:41:45.568Z,22.25
2022-08-16T19:44:13.497Z,22.16
2022-08-16T19:46:44.802Z,22.09
2022-08-16T19:49:15.977Z,22.09
2022-08-16T19:51:47.177Z,22.04
2022-08-16T19:54:14.753Z,22.06
2022-08-16T19:56:41.451Z,22.01
2022-08-16T19:59:40.228Z,21.93
2022-08-16T20:01:55.170Z,21.92
2022-08-16T20:04:22.977Z,21.91
2022-08-16T20:06:50.899Z,21.90
2022-08-16T20:09:20.325Z,21.86
2022-08-16T20:11:48.591Z,21.87
2022-08-16T20:14:24.418Z,21.81
2022-08-16T20:16:57.924Z,21.76
2022-08-16T20:19:27.358Z,21.81
2022-08-16T20:21:56.486Z,21.85
2022-08-16T20:24:34.156Z,21.82
2022-08-16T20:27:03.612Z,21.73
2022-08-16T20:29:30.422Z,21.56
2022-08-16T20:31:57.152Z,21.60
2022-08-16T20:34:23.907Z,21.61
2022-08-16T20:36:50.613Z,21.61
2022-08-16T20:39:17.497Z,21.65
2022-08-16T20:41:44.668Z,21.67
2022-08-16T20:44:12.626Z,21.57
2022-08-16T20:46:39.937Z,21.62
2022-08-16T20:49:09.172Z,21.65
2022-08-16T20:51:46.951Z,21.67
2022-08-16T20:54:16.780Z,21.70
2022-08-16T20:56:43.393Z,21.75
2022-08-16T20:59:10.228Z,21.82
2022-08-16T21:01:45.645Z,21.82
2022-08-16T21:04:13.517Z,21.85
2022-08-16T21:06:41.036Z,21.88
2022-08-16T21:09:07.689Z,21.89
2022-08-16T21:11:35.877Z,21.86
2022-08-16T21:14:02.536Z,21.87
2022-08-16T21:16:29.253Z,21.83
2022-08-16T21:18:56.121Z,21.81
2022-08-16T21:21:22.962Z,21.80
2022-08-16T21:23:58.786Z,21.80
2022-08-16T21:26:25.759Z,21.72
2022-08-16T21:28:55.337Z,21.67
2022-08-16T21:31:23.152Z,21.55
2022-08-16T21:33:55.089Z,21.54
2022-08-16T21:36:35.248Z,21.49
2022-08-16T21:39:05.698Z,21.38
2022-08-16T21:41:32.916Z,21.25
2022-08-16T21:43:59.606Z,21.16
2022-08-16T21:46:26.277Z,21.11
2022-08-16T21:48:52.919Z,21.08
2022-08-16T21:51:19.795Z,21.01
2022-08-16T21:53:46.420Z,21.01
2022-08-16T21:56:16.659Z,20.90
2022-08-16T21:58:53.285Z,20.77
2022-08-16T22:01:23.008Z,20.71
2022-08-16T22:04:09.663Z,20.71
2022-08-16T22:06:38.923Z,20.64
2022-08-16T22:09:09.952Z,20.61
2022-08-16T22:11:37.083Z,20.51
2022-08-16T22:14:04.707Z,20.46
2022-08-16T22:16:34.310Z,20.50
2022-08-16T22:19:02.044Z,20.46
2022-08-16T22:21:30.769Z,20.41
2022-08-16T22:23:59.077Z,20.38
2022-08-16T22:26:31.800Z,20.35
2022-08-16T22:29:05.533Z,20.29
2022-08-16T22:31:33.172Z,20.24
2022-08-16T22:34:02.085Z,20.25
2022-08-16T22:36:30.531Z,20.16
2022-08-16T22:38:59.133Z,20.09
2022-08-16T22:41:29.124Z,20.03
2022-08-16T22:43:56.544Z,20.01
2022-08-16T22:46:23.612Z,19.92
2022-08-16T22:48:53.343Z,19.94
2022-08-16T22:51:22.261Z,19.95
2022-08-16T22:53:49.094Z,19.88
2022-08-16T22:56:17.473Z,19.84
2022-08-16T22:58:44.860Z,19.81
2022-08-16T23:01:13.385Z,19.73
2022-08-16T23:03:40.934Z,19.66
2022-08-16T23:06:08.953Z,19.61
2022-08-16T23:08:40.666Z,19.54
2022-08-16T23:11:20.836Z,19.42
2022-08-16T23:13:53.730Z,19.36
2022-08-16T23:16:24.905Z,19.44
2022-08-16T23:18:58.180Z,19.38
2022-08-16T23:21:24.868Z,19.32
2022-08-16T23:23:53.357Z,19.31
2022-08-16T23:26:45.089Z,19.34
2022-08-16T23:29:07.295Z,19.36
2022-08-16T23:31:49.194Z,19.36
2022-08-16T23:34:16.032Z,19.36
2022-08-16T23:36:42.764Z,19.29
2022-08-16T23:39:09.474Z,19.26
2022-08-16T23:41:36.406Z,19.23
2022-08-16T23:44:56.818Z,19.19
2022-08-16T23:46:50.106Z,19.10
2022-08-16T23:49:57.593Z,19.06
2022-08-16T23:52:08.151Z,19.02
2022-08-16T23:54:35.945Z,19.04
2022-08-16T23:57:03.083Z,18.99
2022-08-16T23:59:29.881Z,18.97
